Time,TemperatureF,DewpointF,PressureIn,WindDirection,WindDirectionDegrees,WindSpeedMPH,WindSpeedGustMPH,Humidity,HourlyPrecipIn,Conditions,Clouds,dailyrainin,SoftwareType,DateUTC
2013-01-19 00:00:00,28.4,16.7,30.31,WNW,286,7.0,14.0,61,0.00,,---,0.00,VWS V13.01,2013-01-19 05:00:00,
2013-01-19 00:02:00,28.5,16.4,30.31,WNW,301,6.0,9.0,60,0.00,,---,0.00,VWS V13.01,2013-01-19 05:02:00,
2013-01-19 00:03:00,28.4,17.1,30.31,West,281,6.0,10.0,62,0.00,,---,0.00,VWS V13.01,2013-01-19 05:03:00,
2013-01-19 00:04:00,28.4,17.1,30.30,West,281,7.0,10.0,62,0.00,,---,0.00,VWS V13.01,2013-01-19 05:04:00,
2013-01-19 00:09:00,28.5,16.8,30.31,WNW,295,6.0,18.0,61,0.00,,---,0.00,VWS V13.01,2013-01-19 05:09:00,
2013-01-19 00:14:00,28.8,16.7,30.30,WNW,294,8.0,18.0,60,0.00,,---,0.00,VWS V13.01,2013-01-19 05:14:00,
2013-01-19 00:20:00,29.0,16.9,30.31,WNW,284,6.0,18.0,60,0.00,,---,0.00,VWS V13.01,2013-01-19 05:20:00,
2013-01-19 00:25:00,29.3,16.8,30.30,WNW,300,7.0,18.0,59,0.00,,---,0.00,VWS V13.01,2013-01-19 05:25:00,
2013-01-19 00:30:00,29.5,17.0,30.29,WNW,300,9.0,18.0,59,0.00,,---,0.00,VWS V13.01,2013-01-19 05:30:00,
2013-01-19 00:35:00,29.8,16.8,30.29,WNW,289,9.0,18.0,58,0.00,,---,0.00,VWS V13.01,2013-01-19 05:35:00,
2013-01-19 00:40:00,29.9,17.3,30.28,WNW,284,11.0,18.0,59,0.00,,---,0.00,VWS V13.01,2013-01-19 05:40:00,
2013-01-19 00:45:00,30.3,17.3,30.29,WNW,294,10.0,18.0,58,0.00,,---,0.00,VWS V13.01,2013-01-19 05:45:00,
2013-01-19 00:50:00,30.5,17.5,30.28,WNW,286,10.0,18.0,58,0.00,,---,0.00,VWS V13.01,2013-01-19 05:50:00,
2013-01-19 00:55:00,30.7,17.3,30.28,NW,307,13.0,18.0,57,0.00,,---,0.00,VWS V13.01,2013-01-19 05:55:00,
2013-01-19 01:01:00,30.9,17.5,30.27,WNW,298,9.0,11.0,57,0.00,,---,0.00,VWS V13.01,2013-01-19 06:01:00,
2013-01-19 01:06:00,31.1,17.7,30.27,WNW,291,10.0,16.0,57,0.00,,---,0.00,VWS V13.01,2013-01-19 06:06:00,
2013-01-19 01:11:00,31.3,18.2,30.27,WNW,284,7.0,16.0,58,0.00,,---,0.00,VWS V13.01,2013-01-19 06:11:00,
2013-01-19 01:16:00,31.4,18.4,30.27,West,263,9.0,16.0,58,0.00,,---,0.00,VWS V13.01,2013-01-19 06:16:00,
2013-01-19 01:21:00,31.7,17.8,30.27,WNW,301,10.0,20.0,56,0.00,,---,0.00,VWS V13.01,2013-01-19 06:21:00,
2013-01-19 01:27:00,32.4,18.0,30.27,WNW,289,8.0,20.0,55,0.00,,---,0.00,VWS V13.01,2013-01-19 06:27:00,
2013-01-19 01:33:00,32.5,18.1,30.27,West,275,13.0,18.0,55,0.00,,---,0.00,VWS V13.01,2013-01-19 06:33:00,
2013-01-19 01:38:00,32.4,18.5,30.27,WNW,288,13.0,22.0,56,0.00,,---,0.00,VWS V13.01,2013-01-19 06:38:00,
2013-01-19 01:43:00,32.2,18.3,30.28,West,281,8.0,22.0,56,0.00,,---,0.00,VWS V13.01,2013-01-19 06:43:00,
2013-01-19 01:48:00,32.1,18.6,30.28,West,281,12.0,22.0,57,0.00,,---,0.00,VWS V13.01,2013-01-19 06:48:00,
2013-01-19 01:54:00,32.0,18.9,30.28,West,269,14.0,22.0,58,0.00,,---,0.00,VWS V13.01,2013-01-19 06:54:00,
2013-01-19 01:59:00,32.1,18.6,30.27,West,274,12.0,22.0,57,0.00,,---,0.00,VWS V13.01,2013-01-19 06:59:00,
2013-01-19 02:04:00,32.1,18.6,30.28,WNW,291,13.0,19.0,57,0.00,,---,0.00,VWS V13.01,2013-01-19 07:04:00,
2013-01-19 02:09:00,32.1,19.0,30.28,West,279,8.0,19.0,58,0.00,,---,0.00,VWS V13.01,2013-01-19 07:09:00,
2013-01-19 02:14:00,31.8,19.5,30.28,WNW,290,5.0,19.0,60,0.00,,---,0.00,VWS V13.01,2013-01-19 07:14:00,
2013-01-19 02:20:00,31.9,19.2,30.28,WNW,294,7.0,20.0,59,0.00,,---,0.00,VWS V13.01,2013-01-19 07:20:00,
2013-01-19 02:25:00,31.6,19.3,30.27,West,279,6.0,20.0,60,0.00,,---,0.00,VWS V13.01,2013-01-19 07:25:00,
2013-01-19 02:30:00,31.6,19.3,30.27,WNW,299,6.0,20.0,60,0.00,,---,0.00,VWS V13.01,2013-01-19 07:30:00,
2013-01-19 02:35:00,31.5,19.2,30.27,WNW,296,9.0,13.0,60,0.00,,---,0.00,VWS V13.01,2013-01-19 07:35:00,
2013-01-19 02:40:00,31.4,19.5,30.27,WNW,295,6.0,13.0,61,0.00,,---,0.00,VWS V13.01,2013-01-19 07:40:00,
2013-01-19 02:45:00,31.2,19.3,30.27,WNW,303,7.0,13.0,61,0.00,,---,0.00,VWS V13.01,2013-01-19 07:45:00,
2013-01-19 02:50:00,30.9,19.0,30.26,West,271,4.0,13.0,61,0.00,,---,0.00,VWS V13.01,2013-01-19 07:50:00,
2013-01-19 02:55:00,30.9,19.4,30.26,West,279,8.0,13.0,62,0.00,,---,0.00,VWS V13.01,2013-01-19 07:55:00,
2013-01-19 03:00:00,31.2,19.3,30.26,WNW,288,7.0,10.0,61,0.00,,---,0.00,VWS V13.01,2013-01-19 08:00:00,
2013-01-19 03:06:00,31.2,19.3,30.26,WNW,292,7.0,15.0,61,0.00,,---,0.00,VWS V13.01,2013-01-19 08:06:00,
2013-01-19 03:11:00,31.2,19.3,30.26,WNW,283,9.0,15.0,61,0.00,,---,0.00,VWS V13.01,2013-01-19 08:11:00,
2013-01-19 03:16:00,31.1,19.6,30.26,WNW,285,6.0,15.0,62,0.00,,---,0.00,VWS V13.01,2013-01-19 08:16:00,
2013-01-19 03:21:00,30.9,19.4,30.26,WNW,286,4.0,15.0,62,0.00,,---,0.00,VWS V13.01,2013-01-19 08:21:00,
2013-01-19 03:26:00,31.0,19.9,30.25,WNW,286,9.0,15.0,63,0.00,,---,0.00,VWS V13.01,2013-01-19 08:26:00,
2013-01-19 03:31:00,30.7,19.2,30.25,West,280,7.0,9.0,62,0.00,,---,0.00,VWS V13.01,2013-01-19 08:31:00,
2013-01-19 03:36:00,30.8,19.7,30.25,WNW,284,6.0,12.0,63,0.00,,---,0.00,VWS V13.01,2013-01-19 08:36:00,
2013-01-19 03:41:00,30.5,19.4,30.24,West,281,7.0,12.0,63,0.00,,---,0.00,VWS V13.01,2013-01-19 08:41:00,
2013-01-19 03:46:00,30.6,19.5,30.24,West,275,7.0,12.0,63,0.00,,---,0.00,VWS V13.01,2013-01-19 08:46:00,
2013-01-19 03:51:00,30.9,19.4,30.24,WNW,286,8.0,14.0,62,0.00,,---,0.00,VWS V13.01,2013-01-19 08:51:00,
2013-01-19 03:57:00,31.2,19.7,30.24,West,281,5.0,14.0,62,0.00,,---,0.00,VWS V13.01,2013-01-19 08:57:00,
2013-01-19 04:02:00,30.9,19.8,30.24,WNW,298,4.0,11.0,63,0.00,,---,0.00,VWS V13.01,2013-01-19 09:02:00,
2013-01-19 04:07:00,30.8,19.7,30.24,WNW,282,3.0,12.0,63,0.00,,---,0.00,VWS V13.01,2013-01-19 09:07:00,
2013-01-19 04:12:00,30.4,19.7,30.23,West,265,2.0,12.0,64,0.00,,---,0.00,VWS V13.01,2013-01-19 09:12:00,
2013-01-19 04:17:00,30.1,19.4,30.23,West,265,1.0,12.0,64,0.00,,---,0.00,VWS V13.01,2013-01-19 09:17:00,
2013-01-19 04:22:00,30.3,19.2,30.23,West,269,1.0,12.0,63,0.00,,---,0.00,VWS V13.01,2013-01-19 09:22:00,
2013-01-19 04:27:00,30.4,19.7,30.22,West,275,4.0,12.0,64,0.00,,---,0.00,VWS V13.01,2013-01-19 09:27:00,
2013-01-19 04:32:00,30.7,20.0,30.22,West,273,4.0,9.0,64,0.00,,---,0.00,VWS V13.01,2013-01-19 09:32:00,
2013-01-19 04:38:00,31.7,19.8,30.21,West,269,5.0,14.0,61,0.00,,---,0.00,VWS V13.01,2013-01-19 09:38:00,
2013-01-19 04:43:00,32.4,20.1,30.20,West,273,8.0,15.0,60,0.00,,---,0.00,VWS V13.01,2013-01-19 09:43:00,
2013-01-19 04:48:00,32.3,20.0,30.20,West,261,6.0,15.0,60,0.00,,---,0.00,VWS V13.01,2013-01-19 09:48:00,
2013-01-19 04:53:00,31.7,20.2,30.20,West,264,6.0,15.0,62,0.00,,---,0.00,VWS V13.01,2013-01-19 09:53:00,
2013-01-19 04:59:00,31.5,20.0,30.20,West,269,7.0,15.0,62,0.00,,---,0.00,VWS V13.01,2013-01-19 09:59:00,
2013-01-19 05:04:00,32.1,20.2,30.20,WNW,292,10.0,14.0,61,0.00,,---,0.00,VWS V13.01,2013-01-19 10:04:00,
2013-01-19 05:09:00,32.9,20.2,30.20,West,273,8.0,14.0,59,0.00,,---,0.00,VWS V13.01,2013-01-19 10:09:00,
2013-01-19 05:14:00,33.3,20.5,30.20,West,266,7.0,18.0,59,0.00,,---,0.00,VWS V13.01,2013-01-19 10:14:00,
2013-01-19 05:20:00,33.2,20.8,30.20,West,276,11.0,18.0,60,0.00,,---,0.00,VWS V13.01,2013-01-19 10:20:00,
2013-01-19 05:25:00,33.3,20.5,30.20,WNW,288,18.0,18.0,59,0.00,,---,0.00,VWS V13.01,2013-01-19 10:25:00,
2013-01-19 05:30:00,33.5,20.7,30.19,SW,233,5.0,18.0,59,0.00,,---,0.00,VWS V13.01,2013-01-19 10:30:00,
2013-01-19 05:35:00,34.1,20.9,30.19,WSW,254,10.0,18.0,58,0.00,,---,0.00,VWS V13.01,2013-01-19 10:35:00,
2013-01-19 05:41:00,34.3,21.1,30.19,WSW,254,11.0,18.0,58,0.00,,---,0.00,VWS V13.01,2013-01-19 10:41:00,
2013-01-19 05:46:00,34.4,21.2,30.19,West,277,9.0,18.0,58,0.00,,---,0.00,VWS V13.01,2013-01-19 10:46:00,
2013-01-19 05:51:00,33.9,20.7,30.19,West,271,8.0,18.0,58,0.00,,---,0.00,VWS V13.01,2013-01-19 10:51:00,
2013-01-19 05:57:00,34.2,21.0,30.19,West,280,10.0,19.0,58,0.00,,---,0.00,VWS V13.01,2013-01-19 10:57:00,
2013-01-19 06:02:00,33.9,21.1,30.19,WNW,284,18.0,18.0,59,0.00,,---,0.00,VWS V13.01,2013-01-19 11:02:00,
2013-01-19 06:07:00,34.3,21.1,30.19,West,273,10.0,18.0,58,0.00,,---,0.00,VWS V13.01,2013-01-19 11:07:00,
2013-01-19 06:12:00,34.1,20.9,30.19,West,273,7.0,18.0,58,0.00,,---,0.00,VWS V13.01,2013-01-19 11:12:00,
2013-01-19 07:48:00,33.3,21.7,30.17,West,269,11.0,18.0,62,0.00,,---,0.00,VWS V13.01,2013-01-19 12:48:00,
2013-01-19 07:49:00,33.3,21.7,30.17,West,271,13.0,18.0,62,0.00,,---,0.00,VWS V13.01,2013-01-19 12:49:00,
2013-01-19 07:51:00,33.2,21.2,30.17,WNW,287,9.0,18.0,61,0.00,,---,0.00,VWS V13.01,2013-01-19 12:51:00,
2013-01-19 07:57:00,33.3,21.3,30.17,NW,305,10.0,18.0,61,0.00,,---,0.00,VWS V13.01,2013-01-19 12:57:00,
2013-01-19 08:02:00,33.3,21.7,30.17,West,279,16.0,16.0,62,0.00,,---,0.00,VWS V13.01,2013-01-19 13:02:00,
2013-01-19 08:07:00,33.4,21.4,30.16,WNW,284,10.0,19.0,61,0.00,,---,0.00,VWS V13.01,2013-01-19 13:07:00,
2013-01-19 08:12:00,33.4,21.4,30.16,West,274,11.0,19.0,61,0.00,,---,0.00,VWS V13.01,2013-01-19 13:12:00,
2013-01-19 08:17:00,33.5,21.9,30.16,West,262,7.0,19.0,62,0.00,,---,0.00,VWS V13.01,2013-01-19 13:17:00,
2013-01-19 08:22:00,33.8,21.8,30.16,West,279,10.0,19.0,61,0.00,,---,0.00,VWS V13.01,2013-01-19 13:22:00,
2013-01-19 08:28:00,34.0,22.0,30.16,West,267,10.0,19.0,61,0.00,,---,0.00,VWS V13.01,2013-01-19 13:28:00,
2013-01-19 08:33:00,33.9,21.9,30.16,West,280,8.0,13.0,61,0.00,,---,0.00,VWS V13.01,2013-01-19 13:33:00,
2013-01-19 08:38:00,34.1,22.1,30.16,West,274,12.0,18.0,61,0.00,,---,0.00,VWS V13.01,2013-01-19 13:38:00,
2013-01-19 08:43:00,34.3,22.3,30.16,WNW,297,11.0,18.0,61,0.00,,---,0.00,VWS V13.01,2013-01-19 13:43:00,
2013-01-19 08:48:00,34.4,22.7,30.16,West,272,11.0,18.0,62,0.00,,---,0.00,VWS V13.01,2013-01-19 13:48:00,
2013-01-19 08:53:00,34.4,22.4,30.16,West,268,7.0,18.0,61,0.00,,---,0.00,VWS V13.01,2013-01-19 13:53:00,
2013-01-19 08:58:00,34.4,22.0,30.16,West,274,14.0,20.0,60,0.00,,---,0.00,VWS V13.01,2013-01-19 13:58:00,
2013-01-19 09:04:00,35.0,22.5,30.16,West,276,19.0,19.0,60,0.00,,---,0.00,VWS V13.01,2013-01-19 14:04:00,
2013-01-19 09:09:00,35.2,22.7,30.16,WNW,284,10.0,19.0,60,0.00,,---,0.00,VWS V13.01,2013-01-19 14:09:00,
2013-01-19 09:14:00,35.3,22.8,30.16,WNW,300,12.0,19.0,60,0.00,,---,0.00,VWS V13.01,2013-01-19 14:14:00,
2013-01-19 09:19:00,35.7,22.8,30.15,WNW,288,16.0,21.0,59,0.00,,---,0.00,VWS V13.01,2013-01-19 14:19:00,
2013-01-19 09:25:00,36.2,22.9,30.15,West,275,21.0,22.0,58,0.00,,---,0.00,VWS V13.01,2013-01-19 14:25:00,
2013-01-19 09:30:00,36.6,23.2,30.15,West,273,13.0,24.0,58,0.00,,---,0.00,VWS V13.01,2013-01-19 14:30:00,
2013-01-19 09:35:00,36.8,23.8,30.15,West,265,11.0,20.0,59,0.00,,---,0.00,VWS V13.01,2013-01-19 14:35:00,
2013-01-19 09:40:00,37.0,24.0,30.15,West,275,10.0,20.0,59,0.00,,---,0.00,VWS V13.01,2013-01-19 14:40:00,
2013-01-19 09:45:00,37.3,24.3,30.15,West,267,10.0,20.0,59,0.00,,---,0.00,VWS V13.01,2013-01-19 14:45:00,
2013-01-19 09:50:00,37.5,24.1,30.15,West,265,10.0,24.0,58,0.00,,---,0.00,VWS V13.01,2013-01-19 14:50:00,
2013-01-19 09:55:00,37.8,24.0,30.15,West,280,29.0,29.0,57,0.00,,---,0.00,VWS V13.01,2013-01-19 14:55:00,
2013-01-19 10:00:00,37.9,24.5,30.15,West,266,16.0,19.0,58,0.00,,---,0.00,VWS V13.01,2013-01-19 15:00:00,
2013-01-19 10:05:00,38.2,24.7,30.15,West,275,8.0,21.0,58,0.00,,---,0.00,VWS V13.01,2013-01-19 15:05:00,
2013-01-19 10:11:00,38.4,24.5,30.14,WNW,290,10.0,22.0,57,0.00,,---,0.00,VWS V13.01,2013-01-19 15:11:00,
2013-01-19 10:16:00,38.7,24.8,30.14,West,268,21.0,23.0,57,0.00,,---,0.00,VWS V13.01,2013-01-19 15:16:00,
2013-01-19 10:21:00,38.8,25.3,30.14,WNW,286,14.0,26.0,58,0.00,,---,0.00,VWS V13.01,2013-01-19 15:21:00,
2013-01-19 10:26:00,39.0,25.5,30.15,WNW,302,15.0,26.0,58,0.00,,---,0.00,VWS V13.01,2013-01-19 15:26:00,
2013-01-19 10:32:00,39.3,25.4,30.14,West,278,15.0,20.0,57,0.00,,---,0.00,VWS V13.01,2013-01-19 15:32:00,
2013-01-19 10:37:00,39.5,26.0,30.14,West,273,11.0,20.0,58,0.00,,---,0.00,VWS V13.01,2013-01-19 15:37:00,
2013-01-19 10:42:00,39.7,26.1,30.14,WSW,256,15.0,24.0,58,0.00,,---,0.00,VWS V13.01,2013-01-19 15:42:00,
2013-01-19 10:47:00,39.8,26.2,30.14,West,275,22.0,25.0,58,0.00,,---,0.00,VWS V13.01,2013-01-19 15:47:00,
2013-01-19 10:52:00,40.0,26.0,30.14,West,265,16.0,25.0,57,0.00,,---,0.00,VWS V13.01,2013-01-19 15:52:00,
2013-01-19 10:57:00,40.4,26.0,30.14,West,265,13.0,25.0,56,0.00,,---,0.00,VWS V13.01,2013-01-19 15:57:00,
2013-01-19 11:03:00,40.6,27.4,30.14,West,280,22.0,22.0,59,0.00,,---,0.00,VWS V13.01,2013-01-19 16:03:00,
2013-01-19 11:08:00,40.8,26.8,30.13,WNW,287,15.0,22.0,57,0.00,,---,0.00,VWS V13.01,2013-01-19 16:08:00,
2013-01-19 11:13:00,41.1,27.0,30.13,West,276,11.0,22.0,57,0.00,,---,0.00,VWS V13.01,2013-01-19 16:13:00,
2013-01-19 11:18:00,41.2,28.0,30.12,West,272,10.0,27.0,59,0.00,,---,0.00,VWS V13.01,2013-01-19 16:18:00,
2013-01-19 11:24:00,41.4,26.9,30.12,WSW,251,13.0,27.0,56,0.00,,---,0.00,VWS V13.01,2013-01-19 16:24:00,
2013-01-19 11:29:00,41.3,26.4,30.12,WSW,247,16.0,27.0,55,0.00,,---,0.00,VWS V13.01,2013-01-19 16:29:00,
2013-01-19 11:34:00,41.4,27.8,30.11,West,275,12.0,25.0,58,0.00,,---,0.00,VWS V13.01,2013-01-19 16:34:00,
2013-01-19 11:39:00,41.6,27.5,30.11,WNW,290,13.0,25.0,57,0.00,,---,0.00,VWS V13.01,2013-01-19 16:39:00,
2013-01-19 11:44:00,41.9,27.4,30.10,WNW,284,11.0,25.0,56,0.00,,---,0.00,VWS V13.01,2013-01-19 16:44:00,
2013-01-19 11:50:00,42.0,26.6,30.10,WNW,295,16.0,25.0,54,0.00,,---,0.00,VWS V13.01,2013-01-19 16:50:00,
2013-01-19 11:55:00,41.9,27.8,30.09,West,265,15.0,25.0,57,0.00,,---,0.00,VWS V13.01,2013-01-19 16:55:00,
2013-01-19 12:00:00,42.1,27.1,30.09,West,277,6.0,26.0,55,0.00,,---,0.00,VWS V13.01,2013-01-19 17:00:00,
2013-01-19 12:05:00,42.3,27.3,30.08,West,276,18.0,26.0,55,0.00,,---,0.00,VWS V13.01,2013-01-19 17:05:00,
2013-01-19 12:10:00,42.2,27.2,30.08,WNW,288,10.0,26.0,55,0.00,,---,0.00,VWS V13.01,2013-01-19 17:10:00,
2013-01-19 12:16:00,42.3,27.7,30.08,WSW,256,9.0,27.0,56,0.00,,---,0.00,VWS V13.01,2013-01-19 17:16:00,
2013-01-19 12:21:00,42.6,28.0,30.07,West,276,14.0,27.0,56,0.00,,---,0.00,VWS V13.01,2013-01-19 17:21:00,
2013-01-19 12:27:00,42.5,27.9,30.06,West,263,12.0,27.0,56,0.00,,---,0.00,VWS V13.01,2013-01-19 17:27:00,
2013-01-19 12:33:00,42.8,28.2,30.06,West,260,18.0,22.0,56,0.00,,---,0.00,VWS V13.01,2013-01-19 17:33:00,
2013-01-19 12:38:00,43.2,29.0,30.05,WNW,286,10.0,22.0,57,0.00,,---,0.00,VWS V13.01,2013-01-19 17:38:00,
2013-01-19 12:43:00,43.2,28.6,30.04,West,266,16.0,22.0,56,0.00,,---,0.00,VWS V13.01,2013-01-19 17:43:00,
2013-01-19 12:49:00,43.4,28.3,30.04,WNW,286,10.0,22.0,55,0.00,,---,0.00,VWS V13.01,2013-01-19 17:49:00,
2013-01-19 12:55:00,43.6,29.0,30.04,West,267,10.0,22.0,56,0.00,,---,0.00,VWS V13.01,2013-01-19 17:55:00,
2013-01-19 13:00:00,43.4,27.9,30.03,West,281,15.0,22.0,54,0.00,,---,0.00,VWS V13.01,2013-01-19 18:00:00,
2013-01-19 13:05:00,43.4,27.9,30.03,WNW,284,14.0,24.0,54,0.00,,---,0.00,VWS V13.01,2013-01-19 18:05:00,
2013-01-19 13:11:00,43.6,28.1,30.02,West,276,13.0,24.0,54,0.00,,---,0.00,VWS V13.01,2013-01-19 18:11:00,
2013-01-19 13:17:00,44.5,29.4,30.02,West,274,10.0,24.0,55,0.00,,---,0.00,VWS V13.01,2013-01-19 18:17:00,
2013-01-19 13:23:00,44.9,29.3,30.01,WNW,283,20.0,24.0,54,0.00,,---,0.00,VWS V13.01,2013-01-19 18:23:00,
2013-01-19 13:28:00,44.5,28.5,30.01,West,276,13.0,24.0,53,0.00,,---,0.00,VWS V13.01,2013-01-19 18:28:00,
2013-01-19 13:33:00,44.3,28.7,30.01,West,277,13.0,16.0,54,0.00,,---,0.00,VWS V13.01,2013-01-19 18:33:00,
2013-01-19 13:39:00,44.2,29.1,30.01,West,278,11.0,24.0,55,0.00,,---,0.00,VWS V13.01,2013-01-19 18:39:00,
2013-01-19 13:44:00,44.1,29.0,30.00,West,271,5.0,24.0,55,0.00,,---,0.00,VWS V13.01,2013-01-19 18:44:00,
2013-01-19 13:49:00,44.0,28.9,30.00,West,281,3.0,24.0,55,0.00,,---,0.00,VWS V13.01,2013-01-19 18:49:00,
2013-01-19 13:54:00,44.3,28.7,29.99,SW,232,9.0,24.0,54,0.00,,---,0.00,VWS V13.01,2013-01-19 18:54:00,
2013-01-19 14:00:00,44.5,28.9,29.99,WNW,285,10.0,24.0,54,0.00,,---,0.00,VWS V13.01,2013-01-19 19:00:00,
2013-01-19 14:06:00,44.6,29.0,29.99,WSW,246,15.0,22.0,54,0.00,,---,0.00,VWS V13.01,2013-01-19 19:06:00,
2013-01-19 14:12:00,44.7,29.1,29.98,West,275,7.0,22.0,54,0.00,,---,0.00,VWS V13.01,2013-01-19 19:12:00,
2013-01-19 14:17:00,45.0,29.8,29.98,WNW,289,6.0,22.0,55,0.00,,---,0.00,VWS V13.01,2013-01-19 19:17:00,
2013-01-19 14:23:00,45.0,29.4,29.97,WNW,291,15.0,22.0,54,0.00,,---,0.00,VWS V13.01,2013-01-19 19:23:00,
2013-01-19 14:28:00,45.0,29.4,29.96,WNW,290,4.0,22.0,54,0.00,,---,0.00,VWS V13.01,2013-01-19 19:28:00,
2013-01-19 14:34:00,45.6,30.4,29.96,WNW,298,7.0,9.0,55,0.00,,---,0.00,VWS V13.01,2013-01-19 19:34:00,
2013-01-19 14:39:00,45.7,30.5,29.95,WNW,286,12.0,13.0,55,0.00,,---,0.00,VWS V13.01,2013-01-19 19:39:00,
2013-01-19 14:44:00,46.2,30.0,29.95,WNW,294,8.0,16.0,53,0.00,,---,0.00,VWS V13.01,2013-01-19 19:44:00,
2013-01-19 14:50:00,46.3,30.1,29.95,WNW,288,9.0,16.0,53,0.00,,---,0.00,VWS V13.01,2013-01-19 19:50:00,
2013-01-19 14:57:00,47.3,31.0,29.94,WNW,286,9.0,16.0,53,0.00,,---,0.00,VWS V13.01,2013-01-19 19:57:00,
2013-01-19 15:02:00,47.8,30.6,29.94,West,263,1.0,20.0,51,0.00,,---,0.00,VWS V13.01,2013-01-19 20:02:00,
2013-01-19 15:07:00,48.2,32.3,29.93,West,275,7.0,20.0,54,0.00,,---,0.00,VWS V13.01,2013-01-19 20:07:00,
2013-01-19 15:12:00,48.7,29.9,29.93,WNW,296,7.0,23.0,48,0.00,,---,0.00,VWS V13.01,2013-01-19 20:12:00,
2013-01-19 15:17:00,48.8,31.5,29.93,West,272,6.0,23.0,51,0.00,,---,0.00,VWS V13.01,2013-01-19 20:17:00,
2013-01-19 15:23:00,48.8,31.0,29.92,West,273,0.0,23.0,50,0.00,,---,0.00,VWS V13.01,2013-01-19 20:23:00,
2013-01-19 15:29:00,48.8,29.5,29.92,WSW,242,0.0,23.0,47,0.00,,---,0.00,VWS V13.01,2013-01-19 20:29:00,
2013-01-19 15:34:00,48.5,30.2,29.92,WNW,286,9.0,24.0,49,0.00,,---,0.00,VWS V13.01,2013-01-19 20:34:00,
2013-01-19 15:39:00,48.2,30.0,29.92,WNW,284,8.0,24.0,49,0.00,,---,0.00,VWS V13.01,2013-01-19 20:39:00,
2013-01-19 15:45:00,48.5,29.7,29.92,West,265,1.0,24.0,48,0.00,,---,0.00,VWS V13.01,2013-01-19 20:45:00,
2013-01-19 15:50:00,48.5,29.7,29.91,WSW,250,6.0,24.0,48,0.00,,---,0.00,VWS V13.01,2013-01-19 20:50:00,
2013-01-19 15:55:00,48.6,29.8,29.90,WNW,290,3.0,24.0,48,0.00,,---,0.00,VWS V13.01,2013-01-19 20:55:00,
2013-01-19 16:02:00,48.4,29.1,29.91,NW,311,0.0,12.0,47,0.00,,---,0.00,VWS V13.01,2013-01-19 21:02:00,
2013-01-19 16:08:00,48.3,30.0,29.90,WSW,252,8.0,20.0,49,0.00,,---,0.00,VWS V13.01,2013-01-19 21:08:00,
2013-01-19 16:13:00,48.3,29.5,29.90,WNW,292,9.0,20.0,48,0.00,,---,0.00,VWS V13.01,2013-01-19 21:13:00,
2013-01-19 16:19:00,47.9,29.7,29.90,WNW,284,1.0,20.0,49,0.00,,---,0.00,VWS V13.01,2013-01-19 21:19:00,
2013-01-19 16:24:00,47.8,29.6,29.89,WNW,283,0.0,20.0,49,0.00,,---,0.00,VWS V13.01,2013-01-19 21:24:00,
2013-01-19 16:30:00,47.7,29.5,29.89,West,269,0.0,20.0,49,0.00,,---,0.00,VWS V13.01,2013-01-19 21:30:00,
2013-01-19 16:38:00,47.0,29.8,29.88,WNW,294,4.0,7.0,51,0.00,,---,0.00,VWS V13.01,2013-01-19 21:38:00,
2013-01-19 16:43:00,46.2,29.1,29.88,WNW,293,0.0,7.0,51,0.00,,---,0.00,VWS V13.01,2013-01-19 21:43:00,
2013-01-19 16:49:00,46.1,28.5,29.88,WNW,296,2.0,7.0,50,0.00,,---,0.00,VWS V13.01,2013-01-19 21:49:00,
2013-01-19 16:54:00,45.9,27.8,29.87,WNW,296,0.0,7.0,49,0.00,,---,0.00,VWS V13.01,2013-01-19 21:54:00,
2013-01-19 16:59:00,45.2,29.1,29.87,WNW,295,0.0,7.0,53,0.00,,---,0.00,VWS V13.01,2013-01-19 21:59:00,
2013-01-19 17:05:00,44.3,27.3,29.87,SE,125,0.0,7.0,51,0.00,,---,0.00,VWS V13.01,2013-01-19 22:05:00,
2013-01-19 17:10:00,44.5,27.0,29.86,SSE,155,0.0,7.0,50,0.00,,---,0.00,VWS V13.01,2013-01-19 22:10:00,
2013-01-19 17:16:00,44.3,27.3,29.86,WNW,286,5.0,7.0,51,0.00,,---,0.00,VWS V13.01,2013-01-19 22:16:00,
2013-01-19 17:23:00,43.1,28.5,29.85,WNW,290,0.0,7.0,56,0.00,,---,0.00,VWS V13.01,2013-01-19 22:23:00,
2013-01-19 17:28:00,42.5,26.6,29.85,WNW,282,1.0,9.0,53,0.00,,---,0.00,VWS V13.01,2013-01-19 22:28:00,
2013-01-19 17:33:00,43.3,26.4,29.85,West,261,0.0,12.0,51,0.00,,---,0.00,VWS V13.01,2013-01-19 22:33:00,
2013-01-19 17:39:00,43.6,26.2,29.84,West,281,9.0,12.0,50,0.00,,---,0.00,VWS V13.01,2013-01-19 22:39:00,
2013-01-19 17:44:00,43.3,25.4,29.85,SW,231,0.0,12.0,49,0.00,,---,0.00,VWS V13.01,2013-01-19 22:44:00,
2013-01-19 17:49:00,43.4,25.5,29.84,NW,315,0.0,12.0,49,0.00,,---,0.00,VWS V13.01,2013-01-19 22:49:00,
2013-01-19 17:55:00,43.3,26.4,29.83,WNW,287,1.0,12.0,51,0.00,,---,0.00,VWS V13.01,2013-01-19 22:55:00,
2013-01-19 18:00:00,43.6,25.2,29.83,WNW,292,6.0,12.0,48,0.00,,---,0.00,VWS V13.01,2013-01-19 23:00:00,
2013-01-19 18:05:00,43.6,24.7,29.82,NW,310,0.0,7.0,47,0.00,,---,0.00,VWS V13.01,2013-01-19 23:05:00,
2013-01-19 18:10:00,43.8,24.9,29.82,NW,311,7.0,10.0,47,0.00,,---,0.00,VWS V13.01,2013-01-19 23:10:00,
2013-01-19 18:16:00,44.3,25.4,29.81,WNW,291,7.0,13.0,47,0.00,,---,0.00,VWS V13.01,2013-01-19 23:16:00,
2013-01-19 18:22:00,44.4,24.9,29.81,WNW,298,7.0,13.0,46,0.00,,---,0.00,VWS V13.01,2013-01-19 23:22:00,
2013-01-19 18:28:00,44.0,25.1,29.80,NW,304,12.0,13.0,47,0.00,,---,0.00,VWS V13.01,2013-01-19 23:28:00,
2013-01-19 18:33:00,43.9,24.5,29.80,WNW,290,4.0,10.0,46,0.00,,---,0.00,VWS V13.01,2013-01-19 23:33:00,
2013-01-19 18:38:00,43.8,24.4,29.80,WNW,291,8.0,10.0,46,0.00,,---,0.00,VWS V13.01,2013-01-19 23:38:00,
2013-01-19 18:44:00,44.1,25.2,29.79,West,276,1.0,14.0,47,0.00,,---,0.00,VWS V13.01,2013-01-19 23:44:00,
2013-01-19 18:49:00,44.1,24.7,29.79,NW,313,6.0,14.0,46,0.00,,---,0.00,VWS V13.01,2013-01-19 23:49:00,
2013-01-19 18:55:00,44.2,24.8,29.79,WNW,295,14.0,18.0,46,0.00,,---,0.00,VWS V13.01,2013-01-19 23:55:00,
2013-01-19 19:00:00,44.4,24.9,29.79,SW,219,3.0,3.0,46,0.00,,---,0.00,VWS V13.01,2013-01-20 00:00:00,
2013-01-19 19:06:00,44.4,24.4,29.79,WNW,296,8.0,16.0,45,0.00,,---,0.00,VWS V13.01,2013-01-20 00:06:00,
2013-01-19 19:12:00,44.4,24.9,29.79,WNW,283,0.0,18.0,46,0.00,,---,0.00,VWS V13.01,2013-01-20 00:12:00,
2013-01-19 19:17:00,44.2,25.3,29.79,WNW,289,8.0,18.0,47,0.00,,---,0.00,VWS V13.01,2013-01-20 00:17:00,
2013-01-19 19:24:00,44.3,25.4,29.80,WNW,292,5.0,18.0,47,0.00,,---,0.00,VWS V13.01,2013-01-20 00:24:00,
2013-01-19 19:29:00,44.3,25.9,29.80,WNW,299,7.0,18.0,48,0.00,,---,0.00,VWS V13.01,2013-01-20 00:29:00,
2013-01-19 19:35:00,44.1,25.7,29.80,WNW,288,7.0,18.0,48,0.00,,---,0.00,VWS V13.01,2013-01-20 00:35:00,
2013-01-19 19:40:00,44.1,25.2,29.80,West,275,4.0,18.0,47,0.00,,---,0.00,VWS V13.01,2013-01-20 00:40:00,
2013-01-19 19:45:00,44.1,25.7,29.80,WNW,295,8.0,20.0,48,0.00,,---,0.00,VWS V13.01,2013-01-20 00:45:00,
2013-01-19 19:51:00,44.3,24.8,29.80,West,278,6.0,20.0,46,0.00,,---,0.00,VWS V13.01,2013-01-20 00:51:00,
2013-01-19 19:57:00,44.3,26.4,29.80,WNW,293,7.0,20.0,49,0.00,,---,0.00,VWS V13.01,2013-01-20 00:57:00,
2013-01-19 20:03:00,44.2,25.8,29.80,WNW,295,9.0,14.0,48,0.00,,---,0.00,VWS V13.01,2013-01-20 01:03:00,
2013-01-19 20:09:00,44.3,26.4,29.80,West,277,12.0,15.0,49,0.00,,---,0.00,VWS V13.01,2013-01-20 01:09:00,
2013-01-19 20:15:00,44.4,26.5,29.80,WNW,286,8.0,20.0,49,0.00,,---,0.00,VWS V13.01,2013-01-20 01:15:00,
2013-01-19 20:22:00,44.0,25.6,29.79,West,281,9.0,20.0,48,0.00,,---,0.00,VWS V13.01,2013-01-20 01:22:00,
2013-01-19 20:28:00,44.2,26.3,29.79,WNW,292,4.0,20.0,49,0.00,,---,0.00,VWS V13.01,2013-01-20 01:28:00,
2013-01-19 20:33:00,44.3,25.9,29.79,WNW,291,14.0,14.0,48,0.00,,---,0.00,VWS V13.01,2013-01-20 01:33:00,
2013-01-19 20:38:00,44.3,26.9,29.79,WNW,293,6.0,15.0,50,0.00,,---,0.00,VWS V13.01,2013-01-20 01:38:00,
2013-01-19 20:43:00,44.4,26.5,29.79,West,281,6.0,16.0,49,0.00,,---,0.00,VWS V13.01,2013-01-20 01:43:00,
2013-01-19 20:48:00,44.3,26.4,29.78,WNW,300,9.0,16.0,49,0.00,,---,0.00,VWS V13.01,2013-01-20 01:48:00,
2013-01-19 20:54:00,44.5,26.5,29.78,West,279,7.0,16.0,49,0.00,,---,0.00,VWS V13.01,2013-01-20 01:54:00,
2013-01-19 21:00:00,44.4,26.0,29.77,West,279,8.0,16.0,48,0.00,,---,0.00,VWS V13.01,2013-01-20 02:00:00,
2013-01-19 21:05:00,44.5,26.0,29.77,West,280,10.0,16.0,48,0.00,,---,0.00,VWS V13.01,2013-01-20 02:05:00,
2013-01-19 21:11:00,44.2,26.8,29.76,WNW,285,8.0,16.0,50,0.00,,---,0.00,VWS V13.01,2013-01-20 02:11:00,
2013-01-19 21:16:00,44.0,27.0,29.76,WNW,286,9.0,18.0,51,0.00,,---,0.00,VWS V13.01,2013-01-20 02:16:00,
2013-01-19 21:23:00,44.2,27.2,29.76,West,272,7.0,18.0,51,0.00,,---,0.00,VWS V13.01,2013-01-20 02:23:00,
2013-01-19 21:29:00,44.4,26.0,29.75,NW,321,0.0,18.0,48,0.00,,---,0.00,VWS V13.01,2013-01-20 02:29:00,
2013-01-19 21:34:00,44.8,27.3,29.75,West,275,6.0,12.0,50,0.00,,---,0.00,VWS V13.01,2013-01-20 02:34:00,
2013-01-19 21:39:00,44.7,26.7,29.75,West,275,8.0,13.0,49,0.00,,---,0.00,VWS V13.01,2013-01-20 02:39:00,
2013-01-19 21:44:00,44.8,26.3,29.74,West,263,9.0,14.0,48,0.00,,---,0.00,VWS V13.01,2013-01-20 02:44:00,
2013-01-19 21:49:00,44.7,26.7,29.74,WNW,300,9.0,14.0,49,0.00,,---,0.00,VWS V13.01,2013-01-20 02:49:00,
2013-01-19 21:54:00,44.5,26.5,29.75,West,275,5.0,14.0,49,0.00,,---,0.00,VWS V13.01,2013-01-20 02:54:00,
2013-01-19 22:00:00,44.3,26.4,29.74,West,269,11.0,14.0,49,0.00,,---,0.00,VWS V13.01,2013-01-20 03:00:00,
2013-01-19 22:05:00,44.4,26.0,29.73,West,267,11.0,16.0,48,0.00,,---,0.00,VWS V13.01,2013-01-20 03:05:00,
2013-01-19 22:10:00,44.2,26.3,29.73,West,264,7.0,16.0,49,0.00,,---,0.00,VWS V13.01,2013-01-20 03:10:00,
2013-01-19 22:15:00,44.0,26.1,29.72,West,275,8.0,16.0,49,0.00,,---,0.00,VWS V13.01,2013-01-20 03:15:00,
2013-01-19 22:21:00,43.9,26.0,29.72,West,268,5.0,16.0,49,0.00,,---,0.00,VWS V13.01,2013-01-20 03:21:00,
2013-01-19 22:29:00,44.5,26.0,29.71,West,271,12.0,18.0,48,0.00,,---,0.00,VWS V13.01,2013-01-20 03:29:00,
2013-01-19 22:34:00,44.5,26.5,29.71,WNW,296,11.0,18.0,49,0.00,,---,0.00,VWS V13.01,2013-01-20 03:34:00,
2013-01-19 22:39:00,44.4,26.0,29.70,West,260,2.0,18.0,48,0.00,,---,0.00,VWS V13.01,2013-01-20 03:39:00,
2013-01-19 22:44:00,44.5,26.5,29.70,West,263,14.0,18.0,49,0.00,,---,0.00,VWS V13.01,2013-01-20 03:44:00,
2013-01-19 22:50:00,44.2,27.2,29.70,West,260,10.0,18.0,51,0.00,,---,0.00,VWS V13.01,2013-01-20 03:50:00,
2013-01-19 22:55:00,44.5,26.5,29.70,West,275,7.0,20.0,49,0.00,,---,0.00,VWS V13.01,2013-01-20 03:55:00,
2013-01-19 23:00:00,44.9,27.4,29.69,West,274,18.0,22.0,50,0.00,,---,0.00,VWS V13.01,2013-01-20 04:00:00,
2013-01-19 23:05:00,44.6,26.6,29.69,WNW,298,10.0,18.0,49,0.00,,---,0.00,VWS V13.01,2013-01-20 04:05:00,
2013-01-19 23:11:00,44.7,27.2,29.69,WNW,284,14.0,24.0,50,0.00,,---,0.00,VWS V13.01,2013-01-20 04:11:00,
2013-01-19 23:17:00,45.0,27.0,29.68,WNW,284,8.0,27.0,49,0.00,,---,0.00,VWS V13.01,2013-01-20 04:17:00,
2013-01-19 23:22:00,44.9,26.9,29.68,West,271,10.0,27.0,49,0.00,,---,0.00,VWS V13.01,2013-01-20 04:22:00,
2013-01-19 23:27:00,45.0,27.0,29.67,WSW,254,16.0,27.0,49,0.00,,---,0.00,VWS V13.01,2013-01-20 04:27:00,
2013-01-19 23:33:00,45.0,27.0,29.67,West,269,9.0,15.0,49,0.00,,---,0.00,VWS V13.01,2013-01-20 04:33:00,
2013-01-19 23:38:00,45.0,27.0,29.67,West,261,8.0,19.0,49,0.00,,---,0.00,VWS V13.01,2013-01-20 04:38:00,
2013-01-19 23:43:00,45.0,27.5,29.66,West,278,9.0,25.0,50,0.00,,---,0.00,VWS V13.01,2013-01-20 04:43:00,
2013-01-19 23:49:00,45.2,27.2,29.66,West,267,18.0,30.0,49,0.00,,---,0.00,VWS V13.01,2013-01-20 04:49:00,
2013-01-19 23:54:00,45.0,27.0,29.66,West,267,11.0,30.0,49,0.00,,---,0.00,VWS V13.01,2013-01-20 04:54:00,
2013-01-19 23:59:00,45.0,27.5,29.65,West,267,23.0,30.0,50,0.00,,---,0.00,VWS V13.01,2013-01-20 04:59:00,